首页
METAR-TAF:

METAR-TAF

机场 :

烏山空軍基地

烏山, 大韩民国

纬度: 37-06N, 经度: 127-02E, 海拔: 11米

当前天气观测

该预报发布于20分钟前的03:55 UTC
风速6节,风向东转东北
温度 24°C
湿度 50%
气压 1005 hPa
能見度: 16.1公里
多云层高于5500英尺

METAR: RKSO 280355Z 06006KT 10SM BKN055 24/13 A2969 RMK AO2A SLP058 T02440127 $

时间: 13:15 (04:15 UTC)

预报

该预报发布于7小时和15分钟前的21:00 UTC
预报有效从27日的 21点(UTC)到 29日的 03点(UTC)
风速6节,风向多变
能见度10公里或以上
散云层高于20000英尺
成为
从 28日的 03点(UTC)到 28日的 04点(UTC)
风速10节,风向东北,有时为15节阵风
能见度10公里或以上
少量云层高于20000英尺
成为
从 28日的 10点(UTC)到 28日的 11点(UTC)
风速6节,风向多变
能见度10公里或以上
天空无云
成为
从 28日的 17点(UTC)到 28日的 18点(UTC)
风速6节,风向多变
能見度: 8000
天空无云
轻雾
成为
从 29日的 01点(UTC)到 29日的 02点(UTC)
风速6节,风向西
能见度10公里或以上
天空无云

TAF: RKSO 272100Z 2721/2903 VRB06KT 9999 SCT200 QNH2969INS BECMG 2803/2804 04010G15KT 9999 FEW200 QNH2968INS BECMG 2810/2811 VRB06KT 9999 SKC QNH2971INS BECMG 2817/2818 VRB06KT 8000 BR SKC QNH2985INS BECMG 2901/2902 26006KT 9999 NSW SKC QNH2993INS TX24/2806Z TN13/2721Z

超过4000个机场的气象观测和天气预报(METAR&TAF报告)。

可查询的气象台以黄色和红色小点在地图上表示。

将鼠标移到小点上方,可查看气象台名称。

然后点击查看天气观测和预报。

如需切换地图:点击带黑十字的绿色按钮放大地图;点击带横线的绿色按钮缩小地图;或者点击绿色箭头查看邻近地区的地图。


METAR-TAF: